Kihou Maru — JD3372 — position and weather

sailwx.info

Track history (hours):
 
Tides and Currents Weather Stations Pressure Air Temp Water Temp Dewpoint Dewpoint Depression Visibility Wind Speed Wind Dir Waves Ship Positions

Kihou Maru

Last reported at 2017-Dec-11 09:40 UTC. Time now 2017-Dec-11 19:10 UTC.
Position N 34°42' E 134°40'.

Length 58 m.

Type: Cargo ship. MMSI: 431003527.

Date/timePositionNaut miles runAvg speedWind from/ knotsBaromVisibWave heightAir tempDewpointWater temp
2017-Dec-11 09:40N 34°42' E 134°40'3 9.8
2017-Dec-11 09:20N 34°43' E 134°44'3 0.7
2017-Dec-11 04:30N 34°42' E 134°47'611.0
2017-Dec-11 03:59N 34°38' E 134°52'612.0
2017-Dec-11 03:30N 34°38' E 134°59'611.2
2017-Dec-11 03:00N 34°36' E 135°06'510.9
2017-Dec-11 02:30N 34°37' E 135°13'510.8
2017-Dec-11 02:00N 34°38' E 135°19'510.1
2017-Dec-11 01:30N 34°39' E 135°25'1 1.9
2017-Dec-11 01:00N 34°40' E 135°26'0 0.0
2017-Dec-11 00:30N 34°40' E 135°26'0 0.0
2017-Dec-10 23:57N 34°40' E 135°26'0 0.0
2017-Dec-10 23:30N 34°40' E 135°26'0 0.0
2017-Dec-10 23:00N 34°40' E 135°26'0 0.0
2017-Dec-10 22:30N 34°40' E 135°26'0 0.0
2017-Dec-10 22:00N 34°40' E 135°26'0 0.0
2017-Dec-10 21:30N 34°40' E 135°26'4 8.2
2017-Dec-10 21:00N 34°38' E 135°21'510.9
2017-Dec-10 20:30N 34°37' E 135°15'510.8
2017-Dec-10 20:00N 34°35' E 135°08'510.7
2017-Dec-10 19:30N 34°36' E 135°02'510.1
2017-Dec-10 18:59N 34°36' E 134°56'510.4
2017-Dec-10 18:30N 34°34' E 134°50'510.5
2017-Dec-10 18:00N 34°32' E 134°44'10710.1
2017-Dec-10 07:26N 34°09' E 132°38'510.9
2017-Dec-10 07:00N 34°11' E 132°33'2 4.0
2017-Dec-10 06:28N 34°14' E 132°32'0 0.1
2017-Dec-10 05:58N 34°14' E 132°32'0 0.0
2017-Dec-10 05:28N 34°14' E 132°32'0 0.0
2017-Dec-10 04:58N 34°14' E 132°32'0 0.1
2017-Dec-10 04:28N 34°14' E 132°32'0 0.1
2017-Dec-10 03:58N 34°14' E 132°32'0 0.1
2017-Dec-10 03:28N 34°14' E 132°32'0 0.1
2017-Dec-10 02:58N 34°14' E 132°32'0 0.1
2017-Dec-10 02:28N 34°14' E 132°32'0 0.0
2017-Dec-10 01:58N 34°14' E 132°32'0 0.1
2017-Dec-10 01:28N 34°14' E 132°32'0 0.7
2017-Dec-10 00:52N 34°14' E 132°32'0 1.0
2017-Dec-10 00:30N 34°14' E 132°32'0 0.0
2017-Dec-10 00:00N 34°14' E 132°32'0 0.1
2017-Dec-09 23:30N 34°14' E 132°32'0 0.0
2017-Dec-09 23:00N 34°14' E 132°32'0 0.0
2017-Dec-09 22:30N 34°14' E 132°32'0 0.0
2017-Dec-09 22:00N 34°14' E 132°32'0 0.1
2017-Dec-09 21:30N 34°14' E 132°32'0 0.1
2017-Dec-09 21:00N 34°14' E 132°32'0 0.1
2017-Dec-09 20:30N 34°14' E 132°32'0 0.0
2017-Dec-09 19:57N 34°14' E 132°32'0 0.1
2017-Dec-09 19:27N 34°14' E 132°32'0 0.1
2017-Dec-09 19:00N 34°14' E 132°32'0 0.0
2017-Dec-09 18:27N 34°14' E 132°32'0 0.0
2017-Dec-09 18:00N 34°14' E 132°32'0 0.0
2017-Dec-09 17:30N 34°14' E 132°32'0 0.0
2017-Dec-09 17:00N 34°14' E 132°32'0 0.0
2017-Dec-09 16:30N 34°14' E 132°32'0 0.0
2017-Dec-09 16:00N 34°14' E 132°32'0 0.0
2017-Dec-09 15:30N 34°14' E 132°32'0 0.0
2017-Dec-09 15:00N 34°14' E 132°32'0 0.1
2017-Dec-09 14:30N 34°14' E 132°32'0 0.1
2017-Dec-09 13:57N 34°14' E 132°32'0 0.0
2017-Dec-09 13:30N 34°14' E 132°32'0 0.1
2017-Dec-09 13:00N 34°14' E 132°32'0 0.0
2017-Dec-09 12:30N 34°14' E 132°32'0 0.0
2017-Dec-09 12:00N 34°14' E 132°32'1 1.3
2017-Dec-09 11:30N 34°13' E 132°31'40 8.6
2017-Dec-09 06:52N 33°56' E 131°48'410.7
2017-Dec-09 06:29N 33°60' E 131°45'42 1.2
2017-Dec-07 20:27N 34°00' E 132°36'10911.6
2017-Dec-07 11:04N 34°32' E 134°42'211.5
2017-Dec-07 10:54N 34°32' E 134°44'511.6
2017-Dec-07 10:30N 34°34' E 134°49'611.1
2017-Dec-07 10:00N 34°37' E 134°56'5 9.6
2017-Dec-07 09:30N 34°37' E 135°01'5 9.1
2017-Dec-07 09:00N 34°36' E 135°07'611.4
2017-Dec-07 08:30N 34°37' E 135°14'611.4
2017-Dec-07 08:00N 34°37' E 135°21'510.9
2017-Dec-07 07:30N 34°35' E 135°27'1 1.8
2017-Dec-07 06:59N 34°34' E 135°27'0 0.0
2017-Dec-07 06:29N 34°34' E 135°27'0 0.0
2017-Dec-07 05:59N 34°34' E 135°27'0 0.0
2017-Dec-07 05:29N 34°34' E 135°27'0 0.0
2017-Dec-07 04:59N 34°34' E 135°27'0 0.0
2017-Dec-07 04:29N 34°34' E 135°27'0 0.0
2017-Dec-07 03:59N 34°34' E 135°27'0 0.0
2017-Dec-07 03:29N 34°34' E 135°27'0 0.0
2017-Dec-07 02:59N 34°34' E 135°27'0 0.0
2017-Dec-07 02:29N 34°34' E 135°27'0 0.0
2017-Dec-07 01:59N 34°34' E 135°27'0 0.0
2017-Dec-07 01:29N 34°34' E 135°27'0 0.0
2017-Dec-07 00:59N 34°34' E 135°27'0 0.0
2017-Dec-07 00:29N 34°34' E 135°27'0 0.0
2017-Dec-06 23:59N 34°34' E 135°27'0 0.0
2017-Dec-06 23:27N 34°34' E 135°27'0 0.0
2017-Dec-06 23:00N 34°34' E 135°27'0 0.0
2017-Dec-06 22:27N 34°34' E 135°27'0 0.0
2017-Dec-06 22:00N 34°34' E 135°27'0 0.0
2017-Dec-06 21:30N 34°34' E 135°27'0 0.0
2017-Dec-06 21:00N 34°34' E 135°27'  
2017-Dec-03 23:09N 34°42' E 134°52'0 2.7
2017-Dec-03 23:00N 34°42' E 134°52'2 2.1
2017-Dec-03 22:17N 34°42' E 134°50'0 0.0
2017-Dec-03 21:53N 34°42' E 134°50'0 0.0
2017-Dec-03 21:17N 34°42' E 134°50'0 0.0
2017-Dec-03 20:59N 34°42' E 134°50'0 0.0
2017-Dec-03 15:11N 34°42' E 134°50'0 0.0
2017-Dec-03 14:46N 34°42' E 134°50'2 7.2
2017-Dec-03 14:30N 34°40' E 134°50'5 9.0
2017-Dec-03 14:00N 34°38' E 134°54'511.0
2017-Dec-03 13:30N 34°38' E 135°01'611.0
2017-Dec-03 13:00N 34°36' E 135°07'612.0
2017-Dec-03 12:30N 34°36' E 135°14'612.1
2017-Dec-03 12:00N 34°36' E 135°21'510.1
2017-Dec-03 11:30N 34°34' E 135°27'0 0.2
2017-Dec-03 10:59N 34°34' E 135°27'0 0.2
2017-Dec-03 10:29N 34°34' E 135°27'0 0.2
2017-Dec-03 09:56N 34°34' E 135°27'0 0.1
2017-Dec-03 09:26N 34°34' E 135°27'0 0.2
2017-Dec-03 08:59N 34°34' E 135°27'0 0.0
2017-Dec-03 08:30N 34°34' E 135°27'0 0.1
2017-Dec-03 07:58N 34°34' E 135°27'0 0.5
2017-Dec-03 07:28N 34°34' E 135°27'2 3.7
2017-Dec-03 07:00N 34°36' E 135°25'510.5
2017-Dec-03 06:30N 34°36' E 135°19'611.3
2017-Dec-03 06:00N 34°35' E 135°12'612.2
2017-Dec-03 05:30N 34°35' E 135°05'713.3
2017-Dec-03 05:00N 34°36' E 134°57'713.6
2017-Dec-03 04:28N 34°33' E 134°49'611.7
2017-Dec-03 03:59N 34°31' E 134°42'104 9.8
2017-Dec-02 17:22N 34°09' E 132°39'410.8
2017-Dec-02 17:00N 34°11' E 132°35'4 7.8
2017-Dec-02 16:30N 34°13' E 132°32'1 1.2
2017-Dec-02 15:58N 34°14' E 132°32'0 0.0
2017-Dec-02 15:28N 34°14' E 132°32'0 0.0
2017-Dec-02 14:58N 34°14' E 132°32'0 0.0
2017-Dec-02 14:25N 34°14' E 132°32'0 0.1
2017-Dec-02 13:58N 34°14' E 132°32'0 0.0
2017-Dec-02 13:30N 34°14' E 132°32'0 0.8
2017-Dec-02 13:00N 34°14' E 132°32'0 0.0
2017-Dec-02 12:30N 34°14' E 132°32'0 0.0
2017-Dec-02 12:00N 34°14' E 132°32'0 0.0
2017-Dec-02 11:30N 34°14' E 132°32'5 9.9
2017-Dec-02 11:00N 34°10' E 132°29'3310.9
2017-Dec-02 08:00N 33°46' E 132°03'2411.2
2017-Dec-02 05:52N 33°49' E 131°34'411.4
2017-Dec-02 05:30N 33°50' E 131°29'611.6
2017-Dec-02 05:00N 33°51' E 131°22'611.8
2017-Dec-02 04:30N 33°52' E 131°15'611.9
2017-Dec-02 04:00N 33°54' E 131°09'612.0
2017-Dec-02 03:30N 33°57' E 131°03'5 9.7
2017-Dec-02 03:00N 33°57' E 130°57'4 7.0
2017-Dec-02 02:30N 33°55' E 130°53'4 6.7
2017-Dec-02 01:59N 33°55' E 130°49'0 0.0
2017-Dec-02 01:29N 33°55' E 130°49'0 0.0
2017-Dec-02 00:59N 33°55' E 130°49'0 0.0
2017-Dec-02 00:29N 33°55' E 130°49'0 0.0
2017-Dec-01 23:59N 33°55' E 130°49'0 0.0
2017-Dec-01 23:29N 33°55' E 130°49'0 0.0
2017-Dec-01 22:59N 33°55' E 130°49'0 0.0
2017-Dec-01 22:29N 33°55' E 130°49'0 0.0
2017-Dec-01 21:59N 33°55' E 130°49'0 0.0
2017-Dec-01 21:29N 33°55' E 130°49'0 0.0
2017-Dec-01 20:56N 33°55' E 130°49'0 0.0
2017-Dec-01 20:29N 33°55' E 130°49'0 0.0
2017-Dec-01 19:59N 33°55' E 130°49'0 0.0
2017-Dec-01 19:29N 33°55' E 130°49'0 0.0
2017-Dec-01 18:59N 33°55' E 130°49'0 0.0
2017-Dec-01 18:29N 33°55' E 130°49'0 0.0
2017-Dec-01 17:59N 33°55' E 130°49'0 0.0
2017-Dec-01 17:29N 33°55' E 130°49'0 0.0
2017-Dec-01 16:56N 33°55' E 130°49'0 0.0
2017-Dec-01 16:29N 33°55' E 130°49'0 0.0
2017-Dec-01 15:59N 33°55' E 130°49'0 0.0
2017-Dec-01 15:26N 33°55' E 130°49'0 0.0
2017-Dec-01 14:59N 33°55' E 130°49'0 0.0
2017-Dec-01 14:29N 33°55' E 130°49'0 0.0
2017-Dec-01 13:59N 33°55' E 130°49'0 0.0
2017-Dec-01 13:29N 33°55' E 130°49'0 0.0
2017-Dec-01 12:59N 33°55' E 130°49'0 0.0
2017-Dec-01 12:29N 33°55' E 130°49'0 0.0
2017-Dec-01 11:56N 33°55' E 130°49'0 0.0
2017-Dec-01 11:26N 33°55' E 130°49'0 0.0
2017-Dec-01 10:59N 33°55' E 130°49'0 0.0
2017-Dec-01 10:29N 33°55' E 130°49'0 0.0
2017-Dec-01 09:59N 33°55' E 130°49'  
Track history (hours):
 
Tides and Currents Weather Stations Pressure Air Temp Water Temp Dewpoint Dewpoint Depression Visibility Wind Speed Wind Dir Waves Ship Positions

Kihou Maru

Last reported at 2017-Dec-11 09:40 UTC. Time now 2017-Dec-11 19:10 UTC.
Position N 34°42' E 134°40'.

Length 58 m.

Type: Cargo ship. MMSI: 431003527.

Date/timePositionNaut miles runAvg speedWind from/ knotsBaromVisibWave heightAir tempDewpointWater temp
2017-Dec-11 09:40N 34°42' E 134°40'3 9.8
2017-Dec-11 09:20N 34°43' E 134°44'3 0.7
2017-Dec-11 04:30N 34°42' E 134°47'611.0
2017-Dec-11 03:59N 34°38' E 134°52'612.0
2017-Dec-11 03:30N 34°38' E 134°59'611.2
2017-Dec-11 03:00N 34°36' E 135°06'510.9
2017-Dec-11 02:30N 34°37' E 135°13'510.8
2017-Dec-11 02:00N 34°38' E 135°19'510.1
2017-Dec-11 01:30N 34°39' E 135°25'1 1.9
2017-Dec-11 01:00N 34°40' E 135°26'0 0.0
2017-Dec-11 00:30N 34°40' E 135°26'0 0.0
2017-Dec-10 23:57N 34°40' E 135°26'0 0.0
2017-Dec-10 23:30N 34°40' E 135°26'0 0.0
2017-Dec-10 23:00N 34°40' E 135°26'0 0.0
2017-Dec-10 22:30N 34°40' E 135°26'0 0.0
2017-Dec-10 22:00N 34°40' E 135°26'0 0.0
2017-Dec-10 21:30N 34°40' E 135°26'4 8.2
2017-Dec-10 21:00N 34°38' E 135°21'510.9
2017-Dec-10 20:30N 34°37' E 135°15'510.8
2017-Dec-10 20:00N 34°35' E 135°08'510.7
2017-Dec-10 19:30N 34°36' E 135°02'510.1
2017-Dec-10 18:59N 34°36' E 134°56'510.4
2017-Dec-10 18:30N 34°34' E 134°50'510.5
2017-Dec-10 18:00N 34°32' E 134°44'10710.1
2017-Dec-10 07:26N 34°09' E 132°38'510.9
2017-Dec-10 07:00N 34°11' E 132°33'2 4.0
2017-Dec-10 06:28N 34°14' E 132°32'0 0.1
2017-Dec-10 05:58N 34°14' E 132°32'0 0.0
2017-Dec-10 05:28N 34°14' E 132°32'0 0.0
2017-Dec-10 04:58N 34°14' E 132°32'0 0.1
2017-Dec-10 04:28N 34°14' E 132°32'0 0.1
2017-Dec-10 03:58N 34°14' E 132°32'0 0.1
2017-Dec-10 03:28N 34°14' E 132°32'0 0.1
2017-Dec-10 02:58N 34°14' E 132°32'0 0.1
2017-Dec-10 02:28N 34°14' E 132°32'0 0.0
2017-Dec-10 01:58N 34°14' E 132°32'0 0.1
2017-Dec-10 01:28N 34°14' E 132°32'0 0.7
2017-Dec-10 00:52N 34°14' E 132°32'0 1.0
2017-Dec-10 00:30N 34°14' E 132°32'0 0.0
2017-Dec-10 00:00N 34°14' E 132°32'0 0.1
2017-Dec-09 23:30N 34°14' E 132°32'0 0.0
2017-Dec-09 23:00N 34°14' E 132°32'0 0.0
2017-Dec-09 22:30N 34°14' E 132°32'0 0.0
2017-Dec-09 22:00N 34°14' E 132°32'0 0.1
2017-Dec-09 21:30N 34°14' E 132°32'0 0.1
2017-Dec-09 21:00N 34°14' E 132°32'0 0.1
2017-Dec-09 20:30N 34°14' E 132°32'0 0.0
2017-Dec-09 19:57N 34°14' E 132°32'0 0.1
2017-Dec-09 19:27N 34°14' E 132°32'0 0.1
2017-Dec-09 19:00N 34°14' E 132°32'0 0.0
2017-Dec-09 18:27N 34°14' E 132°32'0 0.0
2017-Dec-09 18:00N 34°14' E 132°32'0 0.0
2017-Dec-09 17:30N 34°14' E 132°32'0 0.0
2017-Dec-09 17:00N 34°14' E 132°32'0 0.0
2017-Dec-09 16:30N 34°14' E 132°32'0 0.0
2017-Dec-09 16:00N 34°14' E 132°32'0 0.0
2017-Dec-09 15:30N 34°14' E 132°32'0 0.0
2017-Dec-09 15:00N 34°14' E 132°32'0 0.1
2017-Dec-09 14:30N 34°14' E 132°32'0 0.1
2017-Dec-09 13:57N 34°14' E 132°32'0 0.0
2017-Dec-09 13:30N 34°14' E 132°32'0 0.1
2017-Dec-09 13:00N 34°14' E 132°32'0 0.0
2017-Dec-09 12:30N 34°14' E 132°32'0 0.0
2017-Dec-09 12:00N 34°14' E 132°32'1 1.3
2017-Dec-09 11:30N 34°13' E 132°31'40 8.6
2017-Dec-09 06:52N 33°56' E 131°48'410.7
2017-Dec-09 06:29N 33°60' E 131°45'42 1.2
2017-Dec-07 20:27N 34°00' E 132°36'10911.6
2017-Dec-07 11:04N 34°32' E 134°42'211.5
2017-Dec-07 10:54N 34°32' E 134°44'511.6
2017-Dec-07 10:30N 34°34' E 134°49'611.1
2017-Dec-07 10:00N 34°37' E 134°56'5 9.6
2017-Dec-07 09:30N 34°37' E 135°01'5 9.1
2017-Dec-07 09:00N 34°36' E 135°07'611.4
2017-Dec-07 08:30N 34°37' E 135°14'611.4
2017-Dec-07 08:00N 34°37' E 135°21'510.9
2017-Dec-07 07:30N 34°35' E 135°27'1 1.8
2017-Dec-07 06:59N 34°34' E 135°27'0 0.0
2017-Dec-07 06:29N 34°34' E 135°27'0 0.0
2017-Dec-07 05:59N 34°34' E 135°27'0 0.0
2017-Dec-07 05:29N 34°34' E 135°27'0 0.0
2017-Dec-07 04:59N 34°34' E 135°27'0 0.0
2017-Dec-07 04:29N 34°34' E 135°27'0 0.0
2017-Dec-07 03:59N 34°34' E 135°27'0 0.0
2017-Dec-07 03:29N 34°34' E 135°27'0 0.0
2017-Dec-07 02:59N 34°34' E 135°27'0 0.0
2017-Dec-07 02:29N 34°34' E 135°27'0 0.0
2017-Dec-07 01:59N 34°34' E 135°27'0 0.0
2017-Dec-07 01:29N 34°34' E 135°27'0 0.0
2017-Dec-07 00:59N 34°34' E 135°27'0 0.0
2017-Dec-07 00:29N 34°34' E 135°27'0 0.0
2017-Dec-06 23:59N 34°34' E 135°27'0 0.0
2017-Dec-06 23:27N 34°34' E 135°27'0 0.0
2017-Dec-06 23:00N 34°34' E 135°27'0 0.0
2017-Dec-06 22:27N 34°34' E 135°27'0 0.0
2017-Dec-06 22:00N 34°34' E 135°27'0 0.0
2017-Dec-06 21:30N 34°34' E 135°27'0 0.0
2017-Dec-06 21:00N 34°34' E 135°27'  
2017-Dec-03 23:09N 34°42' E 134°52'0 2.7
2017-Dec-03 23:00N 34°42' E 134°52'2 2.1
2017-Dec-03 22:17N 34°42' E 134°50'0 0.0
2017-Dec-03 21:53N 34°42' E 134°50'0 0.0
2017-Dec-03 21:17N 34°42' E 134°50'0 0.0
2017-Dec-03 20:59N 34°42' E 134°50'0 0.0
2017-Dec-03 15:11N 34°42' E 134°50'0 0.0
2017-Dec-03 14:46N 34°42' E 134°50'2 7.2
2017-Dec-03 14:30N 34°40' E 134°50'5 9.0
2017-Dec-03 14:00N 34°38' E 134°54'511.0
2017-Dec-03 13:30N 34°38' E 135°01'611.0
2017-Dec-03 13:00N 34°36' E 135°07'612.0
2017-Dec-03 12:30N 34°36' E 135°14'612.1
2017-Dec-03 12:00N 34°36' E 135°21'510.1
2017-Dec-03 11:30N 34°34' E 135°27'0 0.2
2017-Dec-03 10:59N 34°34' E 135°27'0 0.2
2017-Dec-03 10:29N 34°34' E 135°27'0 0.2
2017-Dec-03 09:56N 34°34' E 135°27'0 0.1
2017-Dec-03 09:26N 34°34' E 135°27'0 0.2
2017-Dec-03 08:59N 34°34' E 135°27'0 0.0
2017-Dec-03 08:30N 34°34' E 135°27'0 0.1
2017-Dec-03 07:58N 34°34' E 135°27'0 0.5
2017-Dec-03 07:28N 34°34' E 135°27'2 3.7
2017-Dec-03 07:00N 34°36' E 135°25'510.5
2017-Dec-03 06:30N 34°36' E 135°19'611.3
2017-Dec-03 06:00N 34°35' E 135°12'612.2
2017-Dec-03 05:30N 34°35' E 135°05'713.3
2017-Dec-03 05:00N 34°36' E 134°57'713.6
2017-Dec-03 04:28N 34°33' E 134°49'611.7
2017-Dec-03 03:59N 34°31' E 134°42'104 9.8
2017-Dec-02 17:22N 34°09' E 132°39'410.8
2017-Dec-02 17:00N 34°11' E 132°35'4 7.8
2017-Dec-02 16:30N 34°13' E 132°32'1 1.2
2017-Dec-02 15:58N 34°14' E 132°32'0 0.0
2017-Dec-02 15:28N 34°14' E 132°32'0 0.0
2017-Dec-02 14:58N 34°14' E 132°32'0 0.0
2017-Dec-02 14:25N 34°14' E 132°32'0 0.1
2017-Dec-02 13:58N 34°14' E 132°32'0 0.0
2017-Dec-02 13:30N 34°14' E 132°32'0 0.8
2017-Dec-02 13:00N 34°14' E 132°32'0 0.0
2017-Dec-02 12:30N 34°14' E 132°32'0 0.0
2017-Dec-02 12:00N 34°14' E 132°32'0 0.0
2017-Dec-02 11:30N 34°14' E 132°32'5 9.9
2017-Dec-02 11:00N 34°10' E 132°29'3310.9
2017-Dec-02 08:00N 33°46' E 132°03'2411.2
2017-Dec-02 05:52N 33°49' E 131°34'411.4
2017-Dec-02 05:30N 33°50' E 131°29'611.6
2017-Dec-02 05:00N 33°51' E 131°22'611.8
2017-Dec-02 04:30N 33°52' E 131°15'611.9
2017-Dec-02 04:00N 33°54' E 131°09'612.0
2017-Dec-02 03:30N 33°57' E 131°03'5 9.7
2017-Dec-02 03:00N 33°57' E 130°57'4 7.0
2017-Dec-02 02:30N 33°55' E 130°53'4 6.7
2017-Dec-02 01:59N 33°55' E 130°49'0 0.0
2017-Dec-02 01:29N 33°55' E 130°49'0 0.0
2017-Dec-02 00:59N 33°55' E 130°49'0 0.0
2017-Dec-02 00:29N 33°55' E 130°49'0 0.0
2017-Dec-01 23:59N 33°55' E 130°49'0 0.0
2017-Dec-01 23:29N 33°55' E 130°49'0 0.0
2017-Dec-01 22:59N 33°55' E 130°49'0 0.0
2017-Dec-01 22:29N 33°55' E 130°49'0 0.0
2017-Dec-01 21:59N 33°55' E 130°49'0 0.0
2017-Dec-01 21:29N 33°55' E 130°49'0 0.0
2017-Dec-01 20:56N 33°55' E 130°49'0 0.0
2017-Dec-01 20:29N 33°55' E 130°49'0 0.0
2017-Dec-01 19:59N 33°55' E 130°49'0 0.0
2017-Dec-01 19:29N 33°55' E 130°49'0 0.0
2017-Dec-01 18:59N 33°55' E 130°49'0 0.0
2017-Dec-01 18:29N 33°55' E 130°49'0 0.0
2017-Dec-01 17:59N 33°55' E 130°49'0 0.0
2017-Dec-01 17:29N 33°55' E 130°49'0 0.0
2017-Dec-01 16:56N 33°55' E 130°49'0 0.0
2017-Dec-01 16:29N 33°55' E 130°49'0 0.0
2017-Dec-01 15:59N 33°55' E 130°49'0 0.0
2017-Dec-01 15:26N 33°55' E 130°49'0 0.0
2017-Dec-01 14:59N 33°55' E 130°49'0 0.0
2017-Dec-01 14:29N 33°55' E 130°49'0 0.0
2017-Dec-01 13:59N 33°55' E 130°49'0 0.0
2017-Dec-01 13:29N 33°55' E 130°49'0 0.0
2017-Dec-01 12:59N 33°55' E 130°49'0 0.0
2017-Dec-01 12:29N 33°55' E 130°49'0 0.0
2017-Dec-01 11:56N 33°55' E 130°49'0 0.0
2017-Dec-01 11:26N 33°55' E 130°49'0 0.0
2017-Dec-01 10:59N 33°55' E 130°49'0 0.0
2017-Dec-01 10:29N 33°55' E 130°49'0 0.0
2017-Dec-01 09:59N 33°55' E 130°49'  

Dump ship's entire track history